Time;durP1;ratioP1;P1;durP2;ratioP2;P2;SDS_P1;SDS_P2;PMS_P1;PMS_P2;Temp;Humidity;BMP_temperature;BMP_pressure;BME280_temperature;BME280_humidity;BME280_pressure;Samples;Min_cycle;Max_cycle;Signal;HPM_P1;HPM_P2
2023/03/12 00:00:29;;;;;;;8.30;4.15;;;0.20;99.90;;;;;;5111907;28;20042;-62
2023/03/12 00:02:55;;;;;;;7.05;3.50;;;0.20;99.90;;;;;;5111950;28;20404;-61
2023/03/12 00:05:21;;;;;;;7.95;3.80;;;0.20;99.90;;;;;;5111538;28;20081;-62
2023/03/12 00:07:47;;;;;;;10.18;4.28;;;0.20;99.90;;;;;;5112477;28;20043;-62
2023/03/12 00:10:13;;;;;;;8.32;3.60;;;0.20;99.90;;;;;;5110669;28;20047;-62
2023/03/12 00:12:39;;;;;;;7.43;3.50;;;0.20;99.90;;;;;;5094898;28;20146;-62
2023/03/12 00:15:05;;;;;;;12.45;4.70;;;0.20;99.90;;;;;;5110166;28;20396;-62
2023/03/12 00:17:31;;;;;;;13.48;4.55;;;0.20;99.90;;;;;;5095202;28;20453;-62
2023/03/12 00:19:57;;;;;;;10.93;4.97;;;0.20;99.90;;;;;;5111124;28;20031;-62
2023/03/12 00:22:24;;;;;;;10.73;5.05;;;0.20;99.90;;;;;;5112334;28;20043;-62
2023/03/12 00:24:54;;;;;;;12.68;5.88;;;0.20;99.90;;;;;;5112885;28;20043;-62
2023/03/12 00:27:21;;;;;;;11.65;5.68;;;0.20;99.90;;;;;;5111233;28;20039;-62
2023/03/12 00:29:47;;;;;;;13.20;6.25;;;0.20;99.90;;;;;;5112871;28;20042;-62
2023/03/12 00:32:14;;;;;;;11.40;5.25;;;0.20;99.90;;;;;;5110928;28;20071;-62
2023/03/12 00:34:40;;;;;;;11.27;5.95;;;0.20;99.90;;;;;;5110471;28;20046;-62
2023/03/12 00:37:06;;;;;;;15.73;6.55;;;0.20;99.90;;;;;;5094279;28;20035;-62
2023/03/12 00:39:33;;;;;;;14.55;5.68;;;0.20;99.90;;;;;;5111680;28;20035;-62
2023/03/12 00:41:58;;;;;;;14.65;7.28;;;0.20;99.90;;;;;;5111487;28;20051;-62
2023/03/12 00:44:24;;;;;;;18.95;7.93;;;0.20;99.90;;;;;;5112052;28;20061;-62
2023/03/12 00:46:51;;;;;;;12.48;5.75;;;0.20;99.90;;;;;;5094651;28;20051;-62
2023/03/12 00:49:17;;;;;;;11.15;5.45;;;0.20;99.90;;;;;;5111270;28;20548;-61
2023/03/12 00:51:42;;;;;;;12.20;6.00;;;0.20;99.90;;;;;;5111450;28;20114;-61
2023/03/12 00:54:08;;;;;;;9.98;5.20;;;0.10;99.90;;;;;;5093536;28;20510;-61
2023/03/12 00:56:34;;;;;;;12.98;5.57;;;0.10;99.90;;;;;;5111828;28;20092;-61
2023/03/12 00:59:00;;;;;;;9.98;5.18;;;0.10;99.90;;;;;;5094234;28;20050;-61
2023/03/12 01:01:26;;;;;;;8.88;4.38;;;0.10;99.90;;;;;;5111146;28;20035;-61
2023/03/12 01:03:53;;;;;;;8.38;4.38;;;0.10;99.90;;;;;;5110638;28;20105;-61
2023/03/12 01:06:19;;;;;;;9.63;5.22;;;0.00;99.90;;;;;;5093735;28;20071;-61
2023/03/12 01:08:44;;;;;;;10.38;4.80;;;0.00;99.90;;;;;;5098873;28;20043;-61
2023/03/12 01:11:18;;;;;;;8.57;4.78;;;0.00;99.90;;;;;;5090612;28;20036;-61
2023/03/12 01:13:44;;;;;;;10.50;5.32;;;0.00;99.90;;;;;;5090898;28;20051;-61
2023/03/12 01:16:09;;;;;;;8.70;5.18;;;0.00;99.90;;;;;;5089550;28;20040;-61
2023/03/12 01:18:35;;;;;;;14.70;6.95;;;0.00;99.90;;;;;;5090747;28;20096;-61
2023/03/12 01:21:01;;;;;;;9.65;5.35;;;0.00;99.90;;;;;;5091832;28;20436;-61
2023/03/12 01:23:27;;;;;;;7.05;4.57;;;0.00;99.90;;;;;;5094822;28;20036;-61
2023/03/12 01:25:54;;;;;;;11.50;5.63;;;0.00;99.90;;;;;;5094958;28;20040;-61
2023/03/12 01:28:21;;;;;;;9.23;4.63;;;0.00;99.90;;;;;;5094216;28;20036;-61
2023/03/12 01:30:47;;;;;;;12.40;5.53;;;0.00;99.90;;;;;;5095093;28;20550;-61
2023/03/12 01:33:13;;;;;;;8.43;4.85;;;0.00;99.90;;;;;;5094941;28;20047;-61
2023/03/12 01:35:40;;;;;;;9.98;5.30;;;0.10;99.90;;;;;;5091120;28;20048;-61
2023/03/12 01:38:08;;;;;;;9.52;5.57;;;0.10;99.90;;;;;;5073824;28;20123;-61
2023/03/12 01:40:35;;;;;;;10.32;5.30;;;0.10;99.90;;;;;;5057356;28;20090;-61
2023/03/12 01:43:25;;;;;;;8.85;5.25;;;0.10;99.90;;;;;;5073612;28;20485;-62
2023/03/12 01:46:21;;;;;;;8.88;5.75;;;0.20;99.90;;;;;;5074370;28;20096;-61
2023/03/12 01:49:12;;;;;;;8.15;4.97;;;0.20;99.90;;;;;;5057354;28;20093;-61
2023/03/12 01:51:44;;;;;;;10.98;5.30;;;0.20;99.90;;;;;;5062066;28;20051;-61
2023/03/12 01:54:18;;;;;;;10.10;4.97;;;0.20;99.90;;;;;;5074447;28;20516;-61
2023/03/12 01:56:45;;;;;;;7.75;4.13;;;0.30;99.90;;;;;;5093857;28;20119;-62
2023/03/12 01:59:51;;;;;;;10.52;5.45;;;0.30;99.90;;;;;;5114112;28;20507;-62
2023/03/12 02:02:22;;;;;;;11.30;5.22;;;0.30;99.90;;;;;;5113567;28;20540;-62
2023/03/12 02:04:51;;;;;;;9.82;5.10;;;0.30;99.90;;;;;;5114102;28;20032;-62
2023/03/12 02:07:16;;;;;;;8.57;4.93;;;0.40;99.90;;;;;;5114275;28;20028;-62
2023/03/12 02:09:46;;;;;;;9.80;5.38;;;0.30;99.90;;;;;;5097263;28;20397;-61
2023/03/12 02:12:12;;;;;;;9.32;4.82;;;0.40;99.90;;;;;;5095890;28;20043;-61
2023/03/12 02:14:38;;;;;;;12.80;4.85;;;0.40;99.90;;;;;;5113308;28;20049;-62
2023/03/12 02:17:04;;;;;;;8.23;4.78;;;0.50;99.90;;;;;;5113743;28;20164;-61
2023/03/12 02:20:09;;;;;;;10.70;4.90;;;0.50;99.90;;;;;;5112851;28;20042;-62
2023/03/12 02:22:36;;;;;;;8.38;4.43;;;0.50;99.90;;;;;;5114001;28;20054;-62
2023/03/12 02:25:26;;;;;;;9.93;4.93;;;0.50;99.90;;;;;;5096694;28;20236;-61
2023/03/12 02:27:52;;;;;;;10.93;5.03;;;0.50;99.90;;;;;;5113094;28;20067;-61
2023/03/12 02:30:18;;;;;;;7.85;4.20;;;0.60;99.90;;;;;;5113454;28;20361;-62
2023/03/12 02:32:47;;;;;;;8.38;4.20;;;0.60;99.90;;;;;;5112777;28;20050;-62
2023/03/12 02:35:15;;;;;;;10.45;4.20;;;0.60;99.90;;;;;;5112365;28;20100;-62
2023/03/12 02:37:51;;;;;;;9.65;4.63;;;0.60;99.90;;;;;;5114478;28;20039;-62
2023/03/12 02:40:25;;;;;;;9.40;4.65;;;0.60;99.90;;;;;;5113050;28;20131;-62
2023/03/12 02:42:52;;;;;;;9.90;4.68;;;0.60;99.90;;;;;;5114436;28;20043;-62
2023/03/12 02:45:18;;;;;;;9.48;4.20;;;0.60;99.90;;;;;;5113094;28;20039;-62
2023/03/12 02:47:44;;;;;;;9.95;4.43;;;0.60;99.90;;;;;;5112295;28;20036;-62
2023/03/12 02:50:10;;;;;;;13.18;4.53;;;0.70;99.90;;;;;;5114258;28;20032;-62
2023/03/12 02:52:37;;;;;;;7.43;3.83;;;0.70;99.90;;;;;;5113391;28;20044;-62
2023/03/12 02:55:04;;;;;;;7.88;4.07;;;0.70;99.90;;;;;;5112568;28;20059;-62
2023/03/12 02:57:29;;;;;;;7.90;3.67;;;0.70;99.90;;;;;;5113398;28;20051;-62
2023/03/12 02:59:55;;;;;;;7.18;4.05;;;0.80;99.90;;;;;;5113114;28;20031;-62
2023/03/12 03:02:21;;;;;;;8.70;3.53;;;0.80;99.90;;;;;;5112191;28;20047;-62
2023/03/12 03:04:46;;;;;;;8.77;3.92;;;0.80;99.90;;;;;;5113289;28;20044;-62
2023/03/12 03:07:13;;;;;;;9.15;3.88;;;0.80;99.90;;;;;;5113613;28;20040;-62
2023/03/12 03:09:39;;;;;;;8.60;3.90;;;0.80;99.90;;;;;;5112355;28;20039;-62
2023/03/12 03:12:05;;;;;;;7.68;3.63;;;0.80;99.90;;;;;;5112658;28;20047;-62
2023/03/12 03:14:31;;;;;;;11.02;4.75;;;0.90;99.90;;;;;;5105037;28;20044;-62
2023/03/12 03:16:56;;;;;;;9.68;4.85;;;0.90;99.90;;;;;;5054920;28;20109;-62
2023/03/12 03:19:22;;;;;;;7.82;4.38;;;0.90;99.90;;;;;;5055210;28;20083;-62
2023/03/12 03:21:48;;;;;;;9.10;4.63;;;0.90;99.90;;;;;;5089207;28;20042;-62
2023/03/12 03:24:14;;;;;;;8.05;5.10;;;0.90;99.90;;;;;;5090979;28;20044;-62
2023/03/12 03:26:39;;;;;;;9.02;5.20;;;0.90;99.90;;;;;;5093721;28;20064;-62
2023/03/12 03:29:05;;;;;;;8.75;4.45;;;0.90;99.90;;;;;;5071852;28;20505;-62
2023/03/12 03:31:31;;;;;;;8.10;4.95;;;0.90;99.90;;;;;;5072450;28;20550;-62
2023/03/12 03:33:57;;;;;;;9.82;4.75;;;0.90;99.90;;;;;;5072008;28;20036;-62
2023/03/12 03:36:22;;;;;;;8.32;4.25;;;0.90;99.90;;;;;;5072360;28;20044;-62
2023/03/12 03:38:49;;;;;;;7.53;4.38;;;0.90;99.90;;;;;;5071246;28;20035;-62
2023/03/12 03:41:19;;;;;;;10.40;4.85;;;0.90;99.90;;;;;;5054250;28;20044;-62
2023/03/12 03:43:46;;;;;;;8.88;4.05;;;0.90;99.90;;;;;;5102153;28;20426;-62
2023/03/12 03:46:13;;;;;;;11.15;4.60;;;0.90;99.90;;;;;;5112618;28;20036;-62
2023/03/12 03:48:39;;;;;;;7.85;3.88;;;0.90;99.90;;;;;;5112207;28;20052;-62
2023/03/12 03:51:07;;;;;;;8.82;4.35;;;0.90;99.90;;;;;;5112139;28;20453;-62
2023/03/12 03:53:33;;;;;;;8.40;3.97;;;0.90;99.90;;;;;;5112206;28;20046;-62
2023/03/12 03:56:06;;;;;;;8.15;3.78;;;0.90;99.90;;;;;;5113242;28;20050;-62
2023/03/12 03:58:31;;;;;;;8.98;4.38;;;0.90;99.90;;;;;;5111444;28;20117;-62
2023/03/12 04:00:57;;;;;;;8.98;4.03;;;0.90;99.90;;;;;;5112109;28;20041;-62
2023/03/12 04:03:22;;;;;;;9.25;3.97;;;0.90;99.90;;;;;;5111149;28;20066;-62
2023/03/12 04:05:58;;;;;;;6.97;3.47;;;0.90;99.90;;;;;;5111581;28;20044;-62
2023/03/12 04:08:24;;;;;;;9.23;4.25;;;0.90;99.90;;;;;;5112877;28;20044;-62
2023/03/12 04:10:50;;;;;;;8.05;4.10;;;0.90;99.90;;;;;;5105007;28;20480;-62
2023/03/12 04:13:16;;;;;;;7.63;4.25;;;1.00;99.90;;;;;;5073415;28;20397;-62
2023/03/12 04:15:50;;;;;;;7.25;3.75;;;1.00;99.90;;;;;;5074631;28;20044;-62
2023/03/12 04:18:16;;;;;;;8.43;3.97;;;1.00;99.90;;;;;;5092337;28;20119;-63
2023/03/12 04:20:42;;;;;;;6.28;3.80;;;1.00;99.90;;;;;;5090454;28;20047;-62
2023/03/12 04:23:08;;;;;;;9.25;4.18;;;1.00;99.90;;;;;;5090814;28;20040;-62
2023/03/12 04:25:34;;;;;;;8.90;3.72;;;1.00;99.90;;;;;;5092643;28;20388;-62
2023/03/12 04:28:00;;;;;;;8.68;3.95;;;1.00;99.90;;;;;;5090542;28;20036;-63
2023/03/12 04:30:26;;;;;;;11.40;4.13;;;1.00;99.90;;;;;;5092157;28;20044;-62
2023/03/12 04:32:52;;;;;;;8.07;3.47;;;1.00;99.90;;;;;;5074287;28;20040;-62
2023/03/12 04:35:18;;;;;;;8.70;4.05;;;1.10;99.90;;;;;;5091037;28;20036;-62
2023/03/12 04:37:45;;;;;;;7.28;4.00;;;1.10;99.90;;;;;;5091150;28;20044;-62
2023/03/12 04:40:11;;;;;;;6.55;3.45;;;1.10;99.90;;;;;;5108658;28;20050;-62
2023/03/12 04:42:38;;;;;;;8.07;4.40;;;1.10;99.90;;;;;;5111250;28;20055;-62
2023/03/12 04:45:05;;;;;;;8.23;4.45;;;1.10;99.90;;;;;;5111069;28;20042;-62
2023/03/12 04:47:33;;;;;;;8.25;3.53;;;1.10;99.90;;;;;;5110653;28;20123;-62
2023/03/12 04:49:59;;;;;;;9.00;3.92;;;1.10;99.90;;;;;;5111464;28;20127;-62
2023/03/12 04:52:26;;;;;;;7.38;3.35;;;1.10;99.90;;;;;;5110915;28;20082;-62
2023/03/12 04:54:52;;;;;;;7.57;3.40;;;1.10;99.90;;;;;;5110981;28;20050;-62
2023/03/12 04:57:18;;;;;;;5.82;3.03;;;1.10;99.90;;;;;;5097801;28;20545;-62
2023/03/12 04:59:44;;;;;;;8.07;3.60;;;1.10;99.90;;;;;;5115735;28;20130;-62
2023/03/12 05:02:10;;;;;;;6.63;3.45;;;1.10;99.90;;;;;;5115640;27;20559;-62
2023/03/12 05:04:35;;;;;;;7.97;4.00;;;1.10;99.90;;;;;;5116916;28;20032;-62
2023/03/12 05:07:02;;;;;;;7.80;3.78;;;1.10;99.90;;;;;;5098058;28;20051;-62
2023/03/12 05:09:28;;;;;;;7.53;3.40;;;1.10;99.90;;;;;;5097348;28;20039;-62
2023/03/12 05:11:53;;;;;;;7.53;3.70;;;1.10;99.90;;;;;;5116735;28;20044;-62
2023/03/12 05:14:19;;;;;;;7.38;3.40;;;1.10;99.90;;;;;;5115219;28;20499;-63
2023/03/12 05:16:45;;;;;;;9.27;3.85;;;1.10;99.90;;;;;;5114445;28;20040;-62
2023/03/12 05:19:11;;;;;;;9.55;3.90;;;1.10;99.90;;;;;;5095797;28;20051;-62
2023/03/12 05:21:39;;;;;;;6.78;3.42;;;1.10;99.90;;;;;;5095045;28;20047;-63
2023/03/12 05:24:05;;;;;;;7.30;3.30;;;1.10;99.90;;;;;;5076826;28;20425;-62
2023/03/12 05:26:32;;;;;;;7.75;3.78;;;1.20;99.90;;;;;;5095897;28;20119;-63
2023/03/12 05:28:59;;;;;;;8.25;3.47;;;1.20;99.90;;;;;;5096042;28;20062;-62
2023/03/12 05:31:24;;;;;;;8.32;3.78;;;1.20;99.90;;;;;;5094718;28;20308;-62
2023/03/12 05:33:50;;;;;;;8.93;3.70;;;1.20;99.90;;;;;;5094702;28;20048;-62
2023/03/12 05:36:17;;;;;;;7.88;3.55;;;1.20;99.90;;;;;;5093261;28;20094;-62
2023/03/12 05:38:43;;;;;;;6.53;3.60;;;1.20;99.90;;;;;;5094455;28;20126;-62
2023/03/12 05:41:24;;;;;;;6.72;3.42;;;1.30;99.90;;;;;;5093588;28;20455;-62
2023/03/12 05:43:51;;;;;;;8.43;3.40;;;1.30;99.90;;;;;;5093684;28;20043;-62
2023/03/12 05:46:17;;;;;;;7.35;3.45;;;1.30;99.90;;;;;;5105149;28;20122;-62
2023/03/12 05:48:43;;;;;;;6.00;3.35;;;1.30;99.90;;;;;;5114827;28;20135;-62
2023/03/12 05:51:08;;;;;;;10.75;3.97;;;1.30;99.90;;;;;;5113314;28;20501;-62
2023/03/12 05:53:34;;;;;;;8.50;3.85;;;1.30;99.90;;;;;;5097585;28;20047;-62
2023/03/12 05:56:06;;;;;;;6.90;3.20;;;1.40;99.90;;;;;;5114530;28;20046;-62
2023/03/12 05:58:32;;;;;;;11.25;4.20;;;1.40;99.90;;;;;;5113692;28;20052;-62
2023/03/12 06:00:58;;;;;;;7.80;3.65;;;1.40;99.90;;;;;;5113976;28;20079;-62
2023/03/12 06:03:24;;;;;;;6.97;3.75;;;1.40;99.90;;;;;;5113909;28;20086;-62
2023/03/12 06:05:53;;;;;;;6.60;3.65;;;1.40;99.90;;;;;;5110091;28;20086;-62
2023/03/12 06:08:20;;;;;;;8.95;3.75;;;1.40;99.90;;;;;;5104645;28;20043;-64
2023/03/12 06:10:46;;;;;;;8.10;4.07;;;1.40;99.90;;;;;;5101810;28;20044;-63
2023/03/12 06:13:11;;;;;;;7.97;4.03;;;1.40;99.90;;;;;;5055934;28;20427;-63
2023/03/12 06:15:37;;;;;;;10.70;4.35;;;1.40;99.90;;;;;;5087838;28;20051;-63
2023/03/12 06:18:03;;;;;;;8.25;3.45;;;1.40;99.90;;;;;;5058963;28;20089;-63
2023/03/12 06:20:28;;;;;;;7.10;3.67;;;1.40;99.90;;;;;;5097877;28;20040;-63
2023/03/12 06:22:54;;;;;;;7.75;3.88;;;1.40;99.90;;;;;;5113929;28;20116;-63
2023/03/12 06:25:20;;;;;;;7.97;3.83;;;1.40;99.90;;;;;;5109626;28;20047;-63
2023/03/12 06:27:46;;;;;;;7.57;3.75;;;1.40;99.90;;;;;;5102742;28;20047;-63
2023/03/12 06:30:12;;;;;;;9.68;3.63;;;1.40;99.90;;;;;;5114211;28;20480;-63
2023/03/12 06:32:37;;;;;;;7.18;3.38;;;1.40;99.90;;;;;;5114176;28;20036;-63
2023/03/12 06:35:04;;;;;;;7.22;3.58;;;1.40;99.90;;;;;;5114103;28;20032;-63
2023/03/12 06:37:30;;;;;;;12.02;4.78;;;1.40;99.90;;;;;;5095283;28;20488;-63
2023/03/12 06:39:56;;;;;;;9.23;4.35;;;1.50;99.90;;;;;;5075831;28;20051;-63
2023/03/12 06:42:22;;;;;;;9.07;3.83;;;1.50;99.90;;;;;;5093887;28;20504;-63
2023/03/12 06:44:49;;;;;;;9.60;3.65;;;1.50;99.90;;;;;;5093225;28;20029;-63
2023/03/12 06:47:14;;;;;;;10.38;4.75;;;1.50;99.90;;;;;;5092000;28;20116;-63
2023/03/12 06:49:40;;;;;;;7.38;4.47;;;1.40;99.90;;;;;;5108763;28;20075;-63
2023/03/12 06:52:06;;;;;;;12.60;4.20;;;1.50;99.90;;;;;;5112097;28;20100;-63
2023/03/12 06:54:32;;;;;;;14.48;5.57;;;1.50;99.90;;;;;;5113013;28;20036;-63
2023/03/12 06:57:00;;;;;;;9.05;4.28;;;1.40;99.90;;;;;;5112908;28;20560;-63
2023/03/12 06:59:26;;;;;;;7.32;4.55;;;1.40;99.90;;;;;;5114087;28;20531;-63
2023/03/12 07:01:51;;;;;;;10.43;4.47;;;1.40;99.90;;;;;;5112609;28;20071;-63
2023/03/12 07:04:17;;;;;;;8.02;4.00;;;1.40;99.90;;;;;;5114106;28;20040;-63
2023/03/12 07:06:43;;;;;;;9.00;4.30;;;1.40;99.90;;;;;;5111396;28;20039;-63
2023/03/12 07:09:09;;;;;;;8.20;4.50;;;1.40;99.90;;;;;;5094718;28;20498;-63
2023/03/12 07:11:35;;;;;;;12.05;4.82;;;1.40;99.90;;;;;;5112593;28;20051;-63
2023/03/12 07:14:00;;;;;;;10.27;5.47;;;1.40;99.90;;;;;;5114138;28;20067;-63
2023/03/12 07:16:26;;;;;;;9.45;4.57;;;1.40;99.90;;;;;;5111576;28;20387;-64
2023/03/12 07:18:52;;;;;;;11.52;5.15;;;1.30;99.90;;;;;;5095803;28;20204;-64
2023/03/12 07:21:22;;;;;;;7.85;4.38;;;1.30;99.90;;;;;;5110545;28;20082;-64
2023/03/12 07:23:51;;;;;;;10.50;5.13;;;1.30;99.90;;;;;;5095264;28;20035;-63
2023/03/12 07:26:18;;;;;;;10.13;4.80;;;1.30;99.90;;;;;;5095343;28;20039;-64
2023/03/12 07:28:43;;;;;;;9.65;5.13;;;1.30;99.90;;;;;;5112703;28;20042;-64
2023/03/12 07:31:09;;;;;;;11.63;5.70;;;1.30;99.90;;;;;;5112267;28;20028;-64
2023/03/12 07:33:35;;;;;;;10.80;5.65;;;1.30;99.90;;;;;;5095552;28;20488;-64
2023/03/12 07:36:01;;;;;;;10.02;5.97;;;1.30;99.90;;;;;;5101179;28;20036;-64
2023/03/12 07:38:27;;;;;;;7.85;5.60;;;1.30;99.90;;;;;;5092870;28;20044;-64
2023/03/12 07:40:55;;;;;;;11.70;5.65;;;1.30;99.90;;;;;;5112251;28;20044;-65
2023/03/12 07:43:21;;;;;;;12.80;5.60;;;1.30;99.90;;;;;;5112460;28;20052;-64
2023/03/12 07:45:46;;;;;;;14.25;6.05;;;1.30;99.90;;;;;;5095045;28;20042;-65
2023/03/12 07:48:12;;;;;;;11.90;6.20;;;1.30;99.90;;;;;;5112919;28;20031;-64
2023/03/12 07:50:38;;;;;;;9.20;5.10;;;1.30;99.90;;;;;;5111597;28;20108;-64
2023/03/12 07:53:04;;;;;;;10.05;6.25;;;1.30;99.90;;;;;;5110394;28;20387;-64
2023/03/12 07:55:31;;;;;;;12.70;6.32;;;1.30;99.90;;;;;;5112101;28;20039;-64
2023/03/12 07:57:57;;;;;;;13.30;6.45;;;1.30;99.90;;;;;;5112594;28;20040;-64
2023/03/12 08:00:27;;;;;;;11.63;6.88;;;1.30;99.90;;;;;;5109586;28;20071;-64
2023/03/12 08:02:53;;;;;;;15.27;8.98;;;1.30;99.90;;;;;;5095083;28;20559;-64
2023/03/12 08:05:23;;;;;;;13.07;7.65;;;1.30;99.90;;;;;;5111952;28;20036;-64
2023/03/12 08:07:52;;;;;;;14.48;6.65;;;1.30;99.90;;;;;;5111773;28;20039;-64
2023/03/12 08:10:19;;;;;;;12.27;6.47;;;1.40;99.90;;;;;;5106357;28;20035;-64
2023/03/12 08:12:45;;;;;;;9.75;7.68;;;1.40;99.90;;;;;;5094121;28;20528;-64
2023/03/12 08:15:11;;;;;;;12.45;7.68;;;1.40;99.90;;;;;;5072006;28;20119;-64
2023/03/12 08:17:38;;;;;;;10.45;6.65;;;1.40;99.90;;;;;;5054825;28;20055;-64
2023/03/12 08:20:07;;;;;;;11.75;7.00;;;1.40;99.90;;;;;;5073784;28;20034;-64
2023/03/12 08:22:32;;;;;;;13.75;7.32;;;1.50;99.90;;;;;;5069129;28;20052;-64
2023/03/12 08:24:58;;;;;;;10.05;6.00;;;1.50;99.90;;;;;;5069790;28;20040;-64
2023/03/12 08:27:24;;;;;;;13.25;6.53;;;1.50;99.90;;;;;;5093495;28;20039;-64
2023/03/12 08:29:49;;;;;;;8.63;5.93;;;1.60;99.90;;;;;;5108599;28;20129;-64
2023/03/12 08:32:15;;;;;;;10.13;7.10;;;1.60;99.90;;;;;;5108493;28;20119;-65
2023/03/12 08:34:41;;;;;;;10.85;6.57;;;1.60;99.90;;;;;;5091810;28;20125;-64
2023/03/12 08:37:07;;;;;;;10.80;6.72;;;1.70;99.90;;;;;;5086199;28;20089;-65
2023/03/12 08:39:33;;;;;;;11.40;6.50;;;1.70;99.90;;;;;;5086755;28;20048;-65
2023/03/12 08:41:59;;;;;;;12.63;7.30;;;1.70;99.90;;;;;;5088938;28;20457;-65
2023/03/12 08:44:25;;;;;;;11.25;6.78;;;1.70;99.90;;;;;;5070472;28;20488;-65
2023/03/12 08:46:51;;;;;;;11.70;7.28;;;1.70;99.90;;;;;;5069794;28;20050;-64
2023/03/12 08:49:18;;;;;;;11.77;6.93;;;1.70;99.90;;;;;;5088847;28;20040;-64
2023/03/12 08:51:43;;;;;;;12.77;7.10;;;1.70;99.90;;;;;;5092819;28;20114;-64
2023/03/12 08:54:09;;;;;;;11.45;7.90;;;1.80;99.90;;;;;;5086620;28;20580;-64
2023/03/12 08:56:41;;;;;;;13.35;8.27;;;1.80;99.90;;;;;;5088574;28;20506;-64
2023/03/12 08:59:11;;;;;;;13.20;8.52;;;1.80;99.90;;;;;;5083481;28;20152;-64
2023/03/12 09:01:37;;;;;;;12.55;7.57;;;1.80;99.90;;;;;;5064973;28;20044;-64
2023/03/12 09:04:04;;;;;;;12.32;9.18;;;1.80;99.90;;;;;;5072566;28;20044;-64
2023/03/12 09:06:30;;;;;;;10.68;8.07;;;1.80;99.90;;;;;;5072155;28;20411;-64
2023/03/12 09:08:56;;;;;;;20.02;9.55;;;1.80;99.90;;;;;;5092124;28;20040;-64
2023/03/12 09:11:22;;;;;;;13.52;7.90;;;1.80;99.90;;;;;;5088776;28;20047;-65
2023/03/12 09:13:47;;;;;;;12.52;8.38;;;1.80;99.90;;;;;;5101903;28;20400;-64
2023/03/12 09:16:13;;;;;;;11.25;7.35;;;1.80;99.90;;;;;;5086419;28;20048;-64
2023/03/12 09:18:39;;;;;;;13.30;8.50;;;1.80;99.90;;;;;;5088662;28;20076;-64
2023/03/12 09:21:05;;;;;;;12.27;9.15;;;1.80;99.90;;;;;;5088471;28;20044;-65
2023/03/12 09:23:31;;;;;;;12.90;9.10;;;1.80;99.90;;;;;;5087277;28;20040;-65
2023/03/12 09:25:57;;;;;;;12.73;9.45;;;1.80;99.90;;;;;;5100772;28;20051;-65
2023/03/12 09:28:23;;;;;;;11.63;8.68;;;1.80;99.90;;;;;;5105209;28;20070;-65
2023/03/12 09:30:50;;;;;;;10.88;7.70;;;1.80;99.90;;;;;;5087924;28;20072;-65
2023/03/12 09:33:17;;;;;;;11.73;8.07;;;1.90;99.90;;;;;;5070214;28;20040;-65
2023/03/12 09:35:43;;;;;;;12.98;8.13;;;1.90;99.90;;;;;;5086835;28;20051;-65
2023/03/12 09:38:12;;;;;;;14.93;7.28;;;1.90;99.90;;;;;;5107628;28;20537;-65
2023/03/12 09:40:38;;;;;;;12.07;8.00;;;1.90;99.90;;;;;;5087776;28;20048;-65
2023/03/12 09:43:16;;;;;;;11.93;8.27;;;2.00;99.90;;;;;;5091477;28;20110;-65
2023/03/12 09:45:44;;;;;;;10.60;7.80;;;2.00;99.90;;;;;;5091386;28;20122;-65
2023/03/12 09:48:23;;;;;;;13.52;8.07;;;2.10;99.90;;;;;;5074394;28;20040;-65
2023/03/12 09:50:50;;;;;;;11.88;8.85;;;2.10;99.90;;;;;;5074813;28;20036;-65
2023/03/12 09:53:31;;;;;;;14.93;10.23;;;2.10;99.90;;;;;;5074110;28;20489;-65
2023/03/12 09:56:01;;;;;;;13.32;8.98;;;2.20;99.90;;;;;;5085572;28;20492;-65
2023/03/12 09:58:30;;;;;;;12.82;8.77;;;2.20;99.90;;;;;;5074490;28;20080;-65
2023/03/12 10:01:21;;;;;;;15.77;8.30;;;2.20;99.90;;;;;;5082951;28;20148;-65
2023/03/12 10:03:53;;;;;;;15.95;8.45;;;2.30;99.90;;;;;;5059405;28;20052;-65
2023/03/12 10:06:21;;;;;;;12.30;8.48;;;2.30;99.90;;;;;;5083541;28;20492;-65
2023/03/12 10:08:50;;;;;;;11.30;7.45;;;2.40;99.90;;;;;;5078090;28;20044;-64
2023/03/12 10:11:39;;;;;;;13.70;7.60;;;2.40;99.90;;;;;;5091473;28;20119;-65
2023/03/12 10:14:26;;;;;;;10.63;8.00;;;2.40;99.90;;;;;;5074454;28;20040;-65
2023/03/12 10:17:17;;;;;;;12.07;8.45;;;2.40;99.90;;;;;;5088561;28;20043;-64
2023/03/12 10:19:57;;;;;;;14.50;8.75;;;2.40;99.90;;;;;;5079263;28;20446;-64
2023/03/12 10:22:35;;;;;;;11.95;8.27;;;2.40;99.90;;;;;;5089682;28;20048;-64
2023/03/12 10:25:19;;;;;;;13.45;8.48;;;2.50;99.90;;;;;;5089172;28;20508;-65
2023/03/12 10:27:46;;;;;;;13.30;9.23;;;2.50;99.90;;;;;;5089214;28;20031;-65
2023/03/12 10:30:24;;;;;;;14.95;9.07;;;2.50;99.90;;;;;;5076848;28;20062;-65
2023/03/12 10:32:57;;;;;;;11.13;7.97;;;2.60;99.90;;;;;;5070181;28;20059;-65
2023/03/12 10:35:25;;;;;;;14.43;9.25;;;2.70;99.90;;;;;;5093515;28;20048;-64
2023/03/12 10:37:53;;;;;;;14.95;8.60;;;2.70;99.90;;;;;;5076381;28;20080;-64
2023/03/12 10:40:40;;;;;;;13.10;8.38;;;2.70;99.90;;;;;;5067235;28;20120;-64
2023/03/12 10:43:06;;;;;;;11.27;8.02;;;2.80;99.90;;;;;;5079785;28;20079;-64
2023/03/12 10:45:49;;;;;;;13.07;8.65;;;2.80;99.90;;;;;;5086437;28;20040;-65
2023/03/12 10:48:21;;;;;;;15.68;8.98;;;2.90;99.90;;;;;;5069290;28;20107;-64
2023/03/12 10:51:07;;;;;;;14.80;8.63;;;2.90;99.90;;;;;;5084225;28;20052;-64
2023/03/12 10:53:35;;;;;;;15.73;9.20;;;3.00;99.90;;;;;;5071909;28;20056;-64
2023/03/12 10:56:12;;;;;;;12.77;9.07;;;3.00;99.90;;;;;;5082485;28;20063;-64
2023/03/12 10:58:41;;;;;;;12.00;8.32;;;3.00;99.90;;;;;;5079232;28;20047;-65
2023/03/12 11:01:20;;;;;;;15.43;9.63;;;3.10;99.90;;;;;;5085028;28;20036;-64
2023/03/12 11:03:46;;;;;;;15.10;10.23;;;3.20;99.90;;;;;;5075438;28;20441;-64
2023/03/12 11:06:27;;;;;;;13.98;9.63;;;3.20;99.90;;;;;;5073908;28;20032;-64
2023/03/12 11:09:02;;;;;;;15.32;9.90;;;3.30;99.90;;;;;;5069078;28;20539;-64
2023/03/12 11:11:33;;;;;;;16.17;10.98;;;3.40;99.90;;;;;;5072344;28;20041;-64
2023/03/12 11:14:26;;;;;;;17.08;11.05;;;3.50;99.90;;;;;;5058942;28;20037;-64
2023/03/12 11:16:53;;;;;;;16.00;11.70;;;3.70;99.90;;;;;;5066563;28;20055;-64
2023/03/12 11:19:33;;;;;;;20.35;11.63;;;3.80;99.90;;;;;;5072763;28;20033;-64
2023/03/12 11:22:01;;;;;;;14.60;10.65;;;3.90;99.90;;;;;;5084828;28;20054;-64
2023/03/12 11:24:27;;;;;;;19.77;11.98;;;3.90;99.90;;;;;;5074394;28;20044;-64
2023/03/12 11:27:12;;;;;;;16.60;11.52;;;4.00;99.90;;;;;;5059612;28;20033;-63
2023/03/12 11:29:47;;;;;;;20.88;11.65;;;4.10;99.90;;;;;;5082109;28;20485;-64
2023/03/12 11:32:15;;;;;;;17.02;11.57;;;4.20;99.90;;;;;;5084168;28;20137;-63
2023/03/12 11:34:46;;;;;;;20.30;14.23;;;4.20;99.90;;;;;;5099153;28;20055;-64
2023/03/12 11:37:48;;;;;;;18.63;12.48;;;4.30;99.90;;;;;;5072533;28;20051;-63
2023/03/12 11:40:26;;;;;;;19.77;13.10;;;4.40;99.90;;;;;;5086133;28;20549;-63
2023/03/12 11:43:02;;;;;;;17.83;12.80;;;4.40;99.90;;;;;;5068771;28;20135;-63
2023/03/12 11:45:56;;;;;;;16.17;11.18;;;4.40;99.90;;;;;;5087535;28;20035;-63
2023/03/12 11:48:38;;;;;;;21.52;13.65;;;4.50;99.90;;;;;;5078377;28;20055;-63
2023/03/12 11:51:23;;;;;;;21.42;13.73;;;4.50;99.90;;;;;;5075700;28;20054;-63
2023/03/12 11:54:04;;;;;;;19.83;12.57;;;4.60;99.90;;;;;;5080423;28;20078;-63
2023/03/12 11:56:43;;;;;;;19.95;12.93;;;4.70;99.90;;;;;;5079539;28;20063;-62
2023/03/12 11:59:23;;;;;;;17.33;11.75;;;4.80;99.90;;;;;;5077706;28;20048;-62
2023/03/12 12:01:58;;;;;;;21.35;12.27;;;4.90;99.90;;;;;;5076300;28;20039;-62
2023/03/12 12:04:24;;;;;;;20.63;12.50;;;5.00;99.90;;;;;;5072701;28;20047;-62
2023/03/12 12:07:18;;;;;;;20.52;14.20;;;5.10;99.90;;;;;;5072242;28;20481;-62
2023/03/12 12:09:57;;;;;;;21.17;13.25;;;5.10;99.90;;;;;;5058536;28;20089;-62
2023/03/12 12:13:11;;;;;;;23.05;14.75;;;5.20;99.90;;;;;;5066840;28;20083;-62
2023/03/12 12:16:00;;;;;;;24.42;15.68;;;5.20;99.90;;;;;;5013267;28;20187;-62
2023/03/12 12:18:31;;;;;;;25.48;15.93;;;5.20;99.90;;;;;;5045959;28;20045;-62
2023/03/12 12:21:18;;;;;;;25.35;15.27;;;5.30;99.90;;;;;;5074665;28;20052;-61
2023/03/12 12:24:04;;;;;;;26.02;14.77;;;5.30;99.90;;;;;;5089964;28;20048;-61
2023/03/12 12:26:49;;;;;;;28.77;17.00;;;5.40;99.90;;;;;;5078185;28;20048;-61
2023/03/12 12:29:36;;;;;;;26.27;14.05;;;5.60;99.90;;;;;;5067830;28;20489;-61
2023/03/12 12:32:04;;;;;;;23.83;14.23;;;5.70;99.90;;;;;;5085056;28;20040;-61
2023/03/12 12:34:39;;;;;;;33.47;16.23;;;5.80;99.90;;;;;;5092641;28;20334;-61
2023/03/12 12:37:04;;;;;;;30.42;15.98;;;6.00;99.90;;;;;;5092117;28;20035;-61
2023/03/12 12:39:36;;;;;;;22.20;13.30;;;6.10;99.90;;;;;;5086934;28;20047;-62
2023/03/12 12:42:06;;;;;;;33.25;16.33;;;6.20;99.90;;;;;;5081213;28;20446;-61
2023/03/12 12:44:48;;;;;;;31.02;12.93;;;6.40;99.90;;;;;;5087912;28;20052;-61
2023/03/12 12:47:21;;;;;;;29.45;13.27;;;6.50;99.90;;;;;;5088344;28;20039;-61
2023/03/12 12:49:56;;;;;;;29.80;12.35;;;6.70;99.90;;;;;;5089814;28;20131;-61
2023/03/12 12:52:23;;;;;;;40.60;17.90;;;6.90;99.90;;;;;;5070800;28;20043;-62
2023/03/12 12:55:27;;;;;;;31.95;11.10;;;7.10;99.90;;;;;;5088770;28;20454;-61
2023/03/12 12:58:04;;;;;;;35.72;11.85;;;7.30;99.90;;;;;;5087198;28;20055;-61
2023/03/12 13:00:42;;;;;;;27.42;12.43;;;7.40;99.90;;;;;;5087842;28;20051;-61
2023/03/12 13:03:16;;;;;;;26.45;9.15;;;7.50;99.90;;;;;;5087604;28;20092;-61